Creston, Iowa
Current Conditions -  °F | °C
As of 5:35 PM on Wednesday 22 Oct 2014 (Local Time) from KCSQ Reporting Station
Broken Clouds Broken Clouds  
Wind Chill: 64°   Ceiling: 6500
Heat Index: 64°   Visibility: 10mi
Dew Point: 48°   Wind: 14mph
Humidity: 56%   Direction: 150°SSE
Pressure: 30.09"   Gusts: 20mph
Location:  41.06°N, 94.37°W
Report Text: KCSQ 222235Z AUTO 15012G17KT 10SM BKN065 18/09 A3009 RMK AO2
Loading
Personal Weather Stations






























Interactive Weather Map
Tropical Storm Tracking
New forecast layout! Learn more

10-Day Weather Forecast

Advertisements
Track Severe Weather on mobile